Deddington, United Kingdom
Current Conditions -  °F | °C
As of 2:20 PM on Sunday 21 Dec 2014 (Local Time) from EGTK Reporting Station
Broken Clouds Broken Clouds  
Wind Chill: 38°   Ceiling: 1000
Heat Index: 46°   Visibility: 6mi
Dew Point: 46°   Wind: 23mph
Humidity: 100%   Direction: 230°SW
Pressure: 30.21"   Gusts: NA
Location:  51.98°N, 1.32°W
Report Text: EGTK 211420Z 23020KT 9000 SCT009 BKN010 08/08 Q1023
Loading
Personal Weather Stations






























Interactive Weather Map New forecast layout! Learn more

10-Day Weather Forecast

Advertisements
Track Severe Weather on mobile